Time;durP1;ratioP1;P1;durP2;ratioP2;P2;SDS_P1;SDS_P2;PMS_P1;PMS_P2;Temp;Humidity;BMP_temperature;BMP_pressure;BME280_temperature;BME280_humidity;BME280_pressure;Samples;Min_cycle;Max_cycle;Signal;HPM_P1;HPM_P2
2023/08/22 00:00:07;;;;;;;7.53;3.60;;;;;;;;;;5012403;28;20210;-88
2023/08/22 00:02:35;;;;;;;4.28;3.45;;;;;;;;;;5012987;28;20262;-87
2023/08/22 00:05:02;;;;;;;4.00;3.50;;;;;;;;;;5007824;28;20607;-87
2023/08/22 00:07:29;;;;;;;4.38;3.83;;;;;;;;;;5012643;28;20223;-88
2023/08/22 00:09:56;;;;;;;3.75;3.42;;;;;;;;;;5013229;28;20203;-88
2023/08/22 00:12:24;;;;;;;5.07;3.40;;;;;;;;;;5012520;28;20844;-87
2023/08/22 00:14:52;;;;;;;4.00;3.60;;;;;;;;;;5012771;28;20231;-88
2023/08/22 00:17:19;;;;;;;4.10;3.70;;;;;;;;;;5011886;28;20238;-88
2023/08/22 00:19:46;;;;;;;5.35;3.65;;;;;;;;;;5012627;28;20207;-87
2023/08/22 00:22:13;;;;;;;6.10;3.70;;;;;;;;;;5012310;28;20239;-88
2023/08/22 00:24:41;;;;;;;4.93;3.58;;;;;;;;;;5012632;28;20587;-88
2023/08/22 00:27:08;;;;;;;5.70;3.83;;;;;;;;;;5012185;28;20743;-88
2023/08/22 00:29:35;;;;;;;5.45;3.97;;;;;;;;;;5012255;28;20689;-88
2023/08/22 00:32:03;;;;;;;5.18;4.03;;;;;;;;;;5011365;28;20227;-87
2023/08/22 00:34:30;;;;;;;4.18;3.30;;;;;;;;;;5012368;28;20713;-87
2023/08/22 00:36:57;;;;;;;5.90;3.70;;;;;;;;;;5011695;28;20723;-88
2023/08/22 00:39:25;;;;;;;4.82;3.45;;;;;;;;;;5012257;28;20676;-87
2023/08/22 00:41:52;;;;;;;4.45;3.55;;;;;;;;;;5011743;28;20227;-88
2023/08/22 00:44:20;;;;;;;6.07;3.63;;;;;;;;;;5012057;28;20204;-88
2023/08/22 00:46:47;;;;;;;4.85;3.83;;;;;;;;;;5011580;28;20571;-89
2023/08/22 00:49:15;;;;;;;5.05;4.00;;;;;;;;;;5012104;28;20211;-87
2023/08/22 00:51:43;;;;;;;5.30;3.70;;;;;;;;;;5003585;28;20249;-87
2023/08/22 00:54:11;;;;;;;4.75;3.70;;;;;;;;;;5012097;28;20720;-87
2023/08/22 00:56:38;;;;;;;5.28;3.97;;;;;;;;;;5011715;28;20227;-87
2023/08/22 00:59:05;;;;;;;7.03;4.10;;;;;;;;;;5012181;28;20195;-88
2023/08/22 01:01:33;;;;;;;4.40;4.00;;;;;;;;;;5011313;28;20671;-88
2023/08/22 01:04:00;;;;;;;6.13;4.50;;;;;;;;;;5016996;28;20205;-88
2023/08/22 01:06:32;;;;;;;4.60;3.78;;;;;;;;;;5012374;28;20231;-88
2023/08/22 01:09:04;;;;;;;4.60;4.13;;;;;;;;;;5011716;28;20204;-88
2023/08/22 01:11:34;;;;;;;4.47;4.07;;;;;;;;;;5010137;28;20246;-88
2023/08/22 01:14:04;;;;;;;6.85;4.07;;;;;;;;;;5012209;28;20206;-88
2023/08/22 01:16:31;;;;;;;3.85;3.55;;;;;;;;;;5011436;28;20706;-88
2023/08/22 01:19:01;;;;;;;4.22;3.83;;;;;;;;;;5012434;28;20211;-88
2023/08/22 01:21:29;;;;;;;6.70;3.90;;;;;;;;;;5011604;28;20235;-88
2023/08/22 01:23:58;;;;;;;5.75;4.18;;;;;;;;;;5012395;28;20211;-88
2023/08/22 01:26:25;;;;;;;6.55;4.00;;;;;;;;;;5011417;28;20239;-88
2023/08/22 01:28:54;;;;;;;7.05;4.80;;;;;;;;;;5012731;28;20207;-88
2023/08/22 01:31:24;;;;;;;4.10;3.40;;;;;;;;;;5011574;28;20231;-88
2023/08/22 01:33:53;;;;;;;4.10;3.72;;;;;;;;;;5012158;28;20199;-88
2023/08/22 01:36:21;;;;;;;5.75;4.30;;;;;;;;;;5011685;28;20243;-88
2023/08/22 01:38:50;;;;;;;6.63;3.90;;;;;;;;;;5012198;28;20207;-88
2023/08/22 01:41:18;;;;;;;4.43;3.55;;;;;;;;;;5011266;28;20227;-88
2023/08/22 01:43:45;;;;;;;7.05;4.47;;;;;;;;;;5011650;28;20210;-88
2023/08/22 01:46:13;;;;;;;3.83;3.53;;;;;;;;;;5011304;28;20696;-88
2023/08/22 01:48:40;;;;;;;3.75;3.45;;;;;;;;;;5011850;28;20712;-88
2023/08/22 01:51:07;;;;;;;5.15;4.03;;;;;;;;;;5011325;28;20655;-87
2023/08/22 01:53:34;;;;;;;4.20;3.80;;;;;;;;;;5011698;28;20204;-87
2023/08/22 01:56:01;;;;;;;8.02;3.78;;;;;;;;;;5010985;28;20231;-88
2023/08/22 01:58:29;;;;;;;4.22;3.85;;;;;;;;;;5011375;28;20204;-88
2023/08/22 02:00:56;;;;;;;6.60;4.38;;;;;;;;;;5010796;28;20238;-88
2023/08/22 02:03:24;;;;;;;5.63;4.05;;;;;;;;;;5011595;28;20204;-88
2023/08/22 02:05:52;;;;;;;4.40;4.00;;;;;;;;;;5014236;28;20227;-88
2023/08/22 02:08:19;;;;;;;4.70;4.10;;;;;;;;;;5015011;28;20658;-87
2023/08/22 02:10:46;;;;;;;6.28;4.15;;;;;;;;;;5014245;28;20227;-87
2023/08/22 02:13:13;;;;;;;5.85;3.80;;;;;;;;;;5014764;28;20575;-87
2023/08/22 02:15:41;;;;;;;5.10;3.72;;;;;;;;;;5013982;28;21798;-88
2023/08/22 02:18:08;;;;;;;6.63;4.30;;;;;;;;;;5014876;28;20218;-88
2023/08/22 02:20:35;;;;;;;5.18;3.65;;;;;;;;;;5015393;28;20230;-88
2023/08/22 02:23:03;;;;;;;6.57;4.10;;;;;;;;;;5015873;28;20227;-88
2023/08/22 02:25:30;;;;;;;4.45;4.05;;;;;;;;;;5044496;23;20385;-80
2023/08/22 02:27:57;;;;;;;5.18;4.35;;;;;;;;;;5023541;28;20649;-80
2023/08/22 02:30:24;;;;;;;4.18;3.88;;;;;;;;;;5022274;28;20231;-81
2023/08/22 02:32:52;;;;;;;7.38;4.20;;;;;;;;;;5033380;28;20210;-80
2023/08/22 02:35:20;;;;;;;4.82;4.38;;;;;;;;;;5024602;28;20736;-81
2023/08/22 02:37:47;;;;;;;4.65;4.30;;;;;;;;;;5012535;28;20235;-79
2023/08/22 02:40:14;;;;;;;3.95;3.58;;;;;;;;;;5014662;28;20247;-80
2023/08/22 02:42:41;;;;;;;5.80;3.75;;;;;;;;;;5016488;28;20227;-80
2023/08/22 02:45:09;;;;;;;4.80;4.32;;;;;;;;;;5015174;28;20238;-81
2023/08/22 02:47:36;;;;;;;8.40;4.00;;;;;;;;;;5020216;28;20215;-80
2023/08/22 02:50:06;;;;;;;4.60;4.20;;;;;;;;;;5013128;28;20204;-80
2023/08/22 02:52:33;;;;;;;4.40;3.63;;;;;;;;;;5021050;28;20238;-79
2023/08/22 02:55:00;;;;;;;4.43;4.03;;;;;;;;;;5013288;28;20223;-80
2023/08/22 02:57:27;;;;;;;4.85;4.32;;;;;;;;;;5013969;28;20238;-80
2023/08/22 02:59:54;;;;;;;4.10;3.70;;;;;;;;;;5024015;28;20680;-80
2023/08/22 03:02:21;;;;;;;6.07;4.20;;;;;;;;;;5023209;28;20234;-80
2023/08/22 03:04:48;;;;;;;4.80;4.35;;;;;;;;;;5013224;28;20224;-80
2023/08/22 03:07:16;;;;;;;6.43;4.60;;;;;;;;;;5015279;28;20735;-79
2023/08/22 03:09:44;;;;;;;5.53;4.57;;;;;;;;;;5013392;28;20211;-80
2023/08/22 03:12:11;;;;;;;5.40;4.20;;;;;;;;;;5012471;28;20227;-80
2023/08/22 03:14:38;;;;;;;5.68;4.22;;;;;;;;;;5012966;28;20592;-81
2023/08/22 03:17:05;;;;;;;5.28;4.60;;;;;;;;;;5012375;28;20231;-80
2023/08/22 03:19:32;;;;;;;5.93;4.32;;;;;;;;;;5014698;28;20309;-80
2023/08/22 03:21:59;;;;;;;6.40;4.60;;;;;;;;;;5027228;28;20261;-80
2023/08/22 03:24:27;;;;;;;4.93;4.43;;;;;;;;;;5029829;28;20269;-80
2023/08/22 03:26:55;;;;;;;6.07;5.07;;;;;;;;;;5029910;28;20227;-80
2023/08/22 03:29:22;;;;;;;6.38;4.88;;;;;;;;;;5029289;28;20191;-80
2023/08/22 03:31:49;;;;;;;5.43;4.50;;;;;;;;;;5034476;28;20585;-80
2023/08/22 03:34:16;;;;;;;6.88;4.78;;;;;;;;;;5032459;28;20199;-79
2023/08/22 03:36:43;;;;;;;4.70;4.25;;;;;;;;;;5027364;28;20304;-82
2023/08/22 03:39:10;;;;;;;4.50;4.18;;;;;;;;;;5022075;28;20215;-81
2023/08/22 03:41:38;;;;;;;6.97;4.50;;;;;;;;;;5015623;28;20334;-81
2023/08/22 03:44:05;;;;;;;5.47;4.60;;;;;;;;;;5012317;28;20223;-81
2023/08/22 03:46:32;;;;;;;5.95;4.63;;;;;;;;;;5011831;28;20239;-81
2023/08/22 03:48:59;;;;;;;4.75;4.35;;;;;;;;;;5012653;28;20215;-81
2023/08/22 03:51:27;;;;;;;5.60;5.00;;;;;;;;;;5011959;28;20227;-81
2023/08/22 03:53:54;;;;;;;4.75;4.30;;;;;;;;;;5012642;28;20211;-81
2023/08/22 03:56:21;;;;;;;5.53;5.03;;;;;;;;;;5011937;28;20235;-82
2023/08/22 03:58:49;;;;;;;5.55;4.90;;;;;;;;;;5012185;28;20211;-82
2023/08/22 04:01:16;;;;;;;4.72;4.28;;;;;;;;;;5011885;28;20228;-81
2023/08/22 04:03:43;;;;;;;5.10;4.70;;;;;;;;;;5018842;28;20210;-81
2023/08/22 04:06:10;;;;;;;5.50;4.40;;;;;;;;;;5011449;28;20242;-80
2023/08/22 04:08:38;;;;;;;7.90;4.38;;;;;;;;;;5012061;28;20222;-80
2023/08/22 04:11:05;;;;;;;9.57;3.83;;;;;;;;;;5011451;28;20303;-81
2023/08/22 04:13:32;;;;;;;4.93;4.00;;;;;;;;;;5015310;28;20214;-81
2023/08/22 04:16:00;;;;;;;5.05;4.18;;;;;;;;;;5011419;28;20227;-83
2023/08/22 04:18:27;;;;;;;10.45;4.60;;;;;;;;;;5012234;28;20215;-83
2023/08/22 04:20:54;;;;;;;6.65;4.90;;;;;;;;;;5011738;28;20230;-83
2023/08/22 04:23:21;;;;;;;5.43;4.93;;;;;;;;;;5011953;28;20238;-85
2023/08/22 04:25:48;;;;;;;6.15;5.15;;;;;;;;;;5011722;28;20231;-85
2023/08/22 04:28:17;;;;;;;5.05;4.65;;;;;;;;;;5012435;28;20676;-85
2023/08/22 04:30:44;;;;;;;4.65;4.20;;;;;;;;;;5011860;28;20235;-83
2023/08/22 04:33:12;;;;;;;5.97;4.65;;;;;;;;;;5011804;28;20215;-85
2023/08/22 04:35:41;;;;;;;5.25;4.28;;;;;;;;;;5011267;28;20254;-85
2023/08/22 04:38:08;;;;;;;5.57;4.32;;;;;;;;;;5012261;28;20281;-85
2023/08/22 04:40:35;;;;;;;4.97;4.57;;;;;;;;;;5011603;28;20266;-84
2023/08/22 04:43:02;;;;;;;5.60;4.75;;;;;;;;;;5012202;28;20227;-84
2023/08/22 04:45:30;;;;;;;5.38;4.30;;;;;;;;;;5011287;28;20238;-84
2023/08/22 04:47:57;;;;;;;6.28;4.50;;;;;;;;;;5011907;28;20254;-82
2023/08/22 04:50:25;;;;;;;5.38;4.88;;;;;;;;;;5015901;28;20226;-83
2023/08/22 04:52:52;;;;;;;5.55;4.57;;;;;;;;;;5013781;28;20582;-82
2023/08/22 04:55:20;;;;;;;4.90;4.43;;;;;;;;;;5011668;28;20235;-82
2023/08/22 04:57:47;;;;;;;6.40;4.88;;;;;;;;;;5011457;28;20211;-83
2023/08/22 05:00:14;;;;;;;7.07;4.85;;;;;;;;;;5011547;28;20214;-83
2023/08/22 05:02:41;;;;;;;6.53;5.72;;;;;;;;;;5012910;28;20585;-84
2023/08/22 05:05:10;;;;;;;7.45;6.00;;;;;;;;;;5012171;28;20239;-83
2023/08/22 05:07:38;;;;;;;6.05;5.55;;;;;;;;;;5012531;28;20744;-83
2023/08/22 05:10:05;;;;;;;5.43;4.88;;;;;;;;;;5011457;28;20205;-83
2023/08/22 05:12:32;;;;;;;6.07;5.35;;;;;;;;;;5013230;28;20567;-83
2023/08/22 05:14:59;;;;;;;8.38;5.72;;;;;;;;;;5011495;28;20227;-83
2023/08/22 05:17:26;;;;;;;6.97;5.93;;;;;;;;;;5011669;28;20267;-83
2023/08/22 05:19:53;;;;;;;7.57;6.25;;;;;;;;;;5011067;28;20208;-81
2023/08/22 05:22:20;;;;;;;8.27;6.90;;;;;;;;;;5005680;28;20313;-81
2023/08/22 05:24:49;;;;;;;7.43;6.40;;;;;;;;;;5009923;28;20235;-80
2023/08/22 05:27:17;;;;;;;8.93;7.07;;;;;;;;;;5006048;28;20231;-80
2023/08/22 05:29:44;;;;;;;7.90;7.10;;;;;;;;;;5004661;28;20235;-80
2023/08/22 05:32:11;;;;;;;8.75;6.78;;;;;;;;;;4996294;28;20231;-79
2023/08/22 05:34:38;;;;;;;7.75;6.95;;;;;;;;;;5002789;28;20226;-80
2023/08/22 05:37:05;;;;;;;8.25;7.47;;;;;;;;;;5010184;28;20306;-80
2023/08/22 05:39:32;;;;;;;8.43;7.20;;;;;;;;;;5011936;28;20211;-80
2023/08/22 05:42:01;;;;;;;10.50;7.88;;;;;;;;;;5006541;28;20285;-80
2023/08/22 05:44:29;;;;;;;8.68;7.78;;;;;;;;;;5014882;28;20218;-80
2023/08/22 05:46:56;;;;;;;9.52;7.78;;;;;;;;;;5015452;28;20585;-80
2023/08/22 05:49:23;;;;;;;9.30;8.32;;;;;;;;;;5015325;28;20225;-79
2023/08/22 05:51:50;;;;;;;10.55;8.07;;;;;;;;;;5014278;28;20231;-80
2023/08/22 05:54:17;;;;;;;9.27;8.20;;;;;;;;;;5014758;28;20211;-79
2023/08/22 05:56:44;;;;;;;9.50;8.50;;;;;;;;;;5014040;28;20238;-80
2023/08/22 05:59:12;;;;;;;14.13;9.02;;;;;;;;;;5014331;28;20222;-79
2023/08/22 06:01:39;;;;;;;8.90;8.00;;;;;;;;;;5013798;28;20231;-79
2023/08/22 06:04:07;;;;;;;10.75;7.75;;;;;;;;;;5014326;28;20223;-79
2023/08/22 06:06:34;;;;;;;9.63;8.05;;;;;;;;;;5013924;28;20239;-78
2023/08/22 06:09:01;;;;;;;9.65;8.65;;;;;;;;;;5014001;28;20212;-79
2023/08/22 06:11:28;;;;;;;11.23;8.88;;;;;;;;;;5014043;28;20236;-79
2023/08/22 06:13:56;;;;;;;8.95;8.05;;;;;;;;;;5014561;28;20208;-79
2023/08/22 06:16:24;;;;;;;19.08;8.40;;;;;;;;;;5013546;28;20235;-80
2023/08/22 06:18:51;;;;;;;9.55;8.65;;;;;;;;;;5013412;28;20216;-79
2023/08/22 06:21:18;;;;;;;10.85;9.32;;;;;;;;;;5013239;28;20227;-79
2023/08/22 06:23:45;;;;;;;9.77;8.88;;;;;;;;;;5007324;28;20595;-80
2023/08/22 06:26:13;;;;;;;10.60;8.82;;;;;;;;;;5012673;28;20728;-80
2023/08/22 06:28:41;;;;;;;10.48;8.25;;;;;;;;;;5013678;28;20246;-81
2023/08/22 06:31:08;;;;;;;9.00;8.20;;;;;;;;;;5012883;28;20254;-80
2023/08/22 06:33:36;;;;;;;9.55;7.93;;;;;;;;;;5013317;28;20748;-80
2023/08/22 06:36:03;;;;;;;9.85;8.30;;;;;;;;;;5012460;28;20318;-80
2023/08/22 06:38:31;;;;;;;13.60;8.82;;;;;;;;;;5013289;28;20215;-81
2023/08/22 06:40:58;;;;;;;10.30;7.13;;;;;;;;;;5012273;28;20256;-81
2023/08/22 06:43:25;;;;;;;9.90;7.55;;;;;;;;;;5010310;28;20307;-80
2023/08/22 06:45:52;;;;;;;10.95;8.02;;;;;;;;;;5012294;28;20247;-80
2023/08/22 06:48:19;;;;;;;8.20;7.40;;;;;;;;;;5012961;28;20212;-80
2023/08/22 06:50:47;;;;;;;8.60;7.45;;;;;;;;;;5009967;28;20677;-79
2023/08/22 06:53:14;;;;;;;8.23;7.03;;;;;;;;;;5013509;28;20212;-79
2023/08/22 06:55:41;;;;;;;12.65;6.75;;;;;;;;;;5012461;28;20234;-79
2023/08/22 06:58:09;;;;;;;7.95;6.72;;;;;;;;;;5013085;28;20227;-79
2023/08/22 07:00:36;;;;;;;12.82;7.38;;;;;;;;;;5012711;28;20238;-78
2023/08/22 07:03:03;;;;;;;9.77;7.13;;;;;;;;;;5012978;28;20251;-80
2023/08/22 07:05:30;;;;;;;10.27;6.75;;;;;;;;;;5012596;28;20709;-80
2023/08/22 07:07:59;;;;;;;10.18;6.93;;;;;;;;;;5012622;28;20210;-80
2023/08/22 07:10:26;;;;;;;10.85;5.55;;;;;;;;;;5009619;28;20231;-80
2023/08/22 07:12:53;;;;;;;7.90;6.00;;;;;;;;;;5012246;28;20214;-81
2023/08/22 07:15:20;;;;;;;10.73;6.78;;;;;;;;;;5012017;28;20243;-80
2023/08/22 07:17:47;;;;;;;8.25;6.35;;;;;;;;;;5012321;28;20212;-80
2023/08/22 07:20:14;;;;;;;11.32;7.32;;;;;;;;;;5011760;28;20216;-81
2023/08/22 07:22:41;;;;;;;8.68;6.38;;;;;;;;;;5011935;28;20246;-81
2023/08/22 07:25:10;;;;;;;8.55;6.15;;;;;;;;;;5011335;28;20250;-81
2023/08/22 07:27:37;;;;;;;7.03;6.28;;;;;;;;;;5012027;28;20230;-81
2023/08/22 07:30:04;;;;;;;9.48;5.88;;;;;;;;;;5011996;28;20215;-80
2023/08/22 07:32:31;;;;;;;7.63;6.32;;;;;;;;;;5008639;28;20649;-79
2023/08/22 07:34:59;;;;;;;7.03;6.15;;;;;;;;;;5012877;28;20840;-80
2023/08/22 07:37:26;;;;;;;6.95;5.30;;;;;;;;;;5012283;28;20235;-80
2023/08/22 07:39:53;;;;;;;7.30;6.10;;;;;;;;;;5012941;28;20207;-79
2023/08/22 07:42:21;;;;;;;11.07;6.55;;;;;;;;;;5012466;28;20231;-81
2023/08/22 07:44:48;;;;;;;6.60;5.30;;;;;;;;;;5012952;28;20227;-81
2023/08/22 07:47:15;;;;;;;6.65;5.63;;;;;;;;;;5012265;28;20230;-81
2023/08/22 07:49:43;;;;;;;7.93;5.30;;;;;;;;;;5012825;28;20673;-81
2023/08/22 07:52:10;;;;;;;4.90;4.47;;;;;;;;;;5012374;28;20628;-83
2023/08/22 07:54:37;;;;;;;6.32;5.63;;;;;;;;;;5012716;28;20208;-83
2023/08/22 07:57:04;;;;;;;5.97;5.18;;;;;;;;;;5012046;28;20231;-82
2023/08/22 07:59:32;;;;;;;9.32;5.43;;;;;;;;;;5012984;28;20218;-81
2023/08/22 08:01:59;;;;;;;11.90;5.53;;;;;;;;;;5011255;28;20245;-80
2023/08/22 08:04:27;;;;;;;8.75;5.53;;;;;;;;;;5012656;28;20235;-80
2023/08/22 08:06:54;;;;;;;5.93;4.80;;;;;;;;;;5011784;28;20231;-80
2023/08/22 08:09:21;;;;;;;6.15;4.82;;;;;;;;;;5012114;28;20731;-80
2023/08/22 08:11:48;;;;;;;10.73;5.00;;;;;;;;;;5011801;28;20705;-82
2023/08/22 08:14:15;;;;;;;8.13;4.97;;;;;;;;;;5012641;28;20216;-82
2023/08/22 08:16:44;;;;;;;5.22;4.50;;;;;;;;;;5011215;28;20701;-82
2023/08/22 08:19:13;;;;;;;5.88;5.15;;;;;;;;;;5012298;28;20223;-82
2023/08/22 08:21:40;;;;;;;11.65;6.57;;;;;;;;;;5011750;28;20234;-82
2023/08/22 08:24:08;;;;;;;6.50;4.70;;;;;;;;;;4996273;28;20223;-82
2023/08/22 08:26:35;;;;;;;6.05;4.82;;;;;;;;;;5011532;28;20334;-80
2023/08/22 08:29:02;;;;;;;5.47;4.45;;;;;;;;;;5012296;28;20210;-80
2023/08/22 08:31:29;;;;;;;6.55;4.82;;;;;;;;;;5011637;28;20705;-82
2023/08/22 08:33:57;;;;;;;7.22;4.65;;;;;;;;;;5012102;28;20211;-82
2023/08/22 08:36:24;;;;;;;7.47;4.55;;;;;;;;;;5007880;28;20235;-80
2023/08/22 08:38:52;;;;;;;5.35;4.50;;;;;;;;;;5011718;28;20211;-79
2023/08/22 08:41:19;;;;;;;5.15;4.65;;;;;;;;;;5011524;28;20601;-79
2023/08/22 08:43:47;;;;;;;7.65;4.97;;;;;;;;;;5012005;28;20238;-81
2023/08/22 08:46:14;;;;;;;7.20;5.13;;;;;;;;;;5011483;28;20265;-82
2023/08/22 08:48:42;;;;;;;5.65;4.75;;;;;;;;;;5012108;28;20207;-82
2023/08/22 08:51:10;;;;;;;9.52;6.18;;;;;;;;;;5003492;28;20238;-82
2023/08/22 08:53:38;;;;;;;5.63;5.10;;;;;;;;;;5011544;28;20674;-81
2023/08/22 08:56:09;;;;;;;7.43;4.82;;;;;;;;;;5010914;28;20235;-81
2023/08/22 08:58:37;;;;;;;6.35;4.80;;;;;;;;;;5011838;28;20213;-81
2023/08/22 09:01:04;;;;;;;6.15;4.47;;;;;;;;;;5011315;28;20598;-82
2023/08/22 09:03:31;;;;;;;8.95;6.72;;;;;;;;;;5011471;28;20227;-81
2023/08/22 09:05:58;;;;;;;8.48;5.60;;;;;;;;;;5011153;28;20242;-81
2023/08/22 09:08:27;;;;;;;4.35;3.97;;;;;;;;;;5011862;28;20215;-80
2023/08/22 09:10:54;;;;;;;4.95;3.33;;;;;;;;;;5011114;28;20237;-81
2023/08/22 09:13:28;;;;;;;4.38;3.85;;;;;;;;;;5012818;28;20211;-82
2023/08/22 09:16:02;;;;;;;5.03;4.03;;;;;;;;;;5014869;28;20243;-81
2023/08/22 09:18:29;;;;;;;5.95;3.92;;;;;;;;;;5015352;28;20218;-81
2023/08/22 09:21:03;;;;;;;7.43;4.13;;;;;;;;;;5014752;28;20720;-81
2023/08/22 09:23:32;;;;;;;4.53;3.40;;;;;;;;;;5015484;28;20277;-82
2023/08/22 09:26:01;;;;;;;6.68;4.18;;;;;;;;;;5014622;28;20708;-82
2023/08/22 09:28:28;;;;;;;5.80;4.35;;;;;;;;;;5015489;28;20684;-82
2023/08/22 09:30:55;;;;;;;4.72;3.03;;;;;;;;;;5014932;28;20235;-82
2023/08/22 09:33:23;;;;;;;4.13;3.17;;;;;;;;;;5015640;28;20881;-81
2023/08/22 09:35:56;;;;;;;6.28;3.92;;;;;;;;;;5014433;28;20601;-82
2023/08/22 09:38:23;;;;;;;5.18;2.85;;;;;;;;;;5015439;28;20334;-82
2023/08/22 09:40:52;;;;;;;4.63;2.92;;;;;;;;;;5014911;28;20238;-81
2023/08/22 09:43:20;;;;;;;4.90;3.25;;;;;;;;;;5014989;28;20277;-82
2023/08/22 09:45:49;;;;;;;8.00;3.38;;;;;;;;;;5014554;28;20238;-82
2023/08/22 09:48:20;;;;;;;5.78;3.30;;;;;;;;;;5014991;28;20269;-81
2023/08/22 09:50:48;;;;;;;4.72;3.42;;;;;;;;;;5014489;28;20267;-83
2023/08/22 09:53:15;;;;;;;5.40;3.15;;;;;;;;;;5015048;28;20215;-82
2023/08/22 09:55:43;;;;;;;5.15;3.30;;;;;;;;;;5014356;28;20697;-81
2023/08/22 09:58:11;;;;;;;3.58;3.00;;;;;;;;;;5014861;28;20211;-80
2023/08/22 10:00:39;;;;;;;5.38;3.05;;;;;;;;;;5014538;28;20236;-81
2023/08/22 10:03:07;;;;;;;3.28;2.97;;;;;;;;;;5014517;28;20212;-80
2023/08/22 10:05:35;;;;;;;4.32;3.00;;;;;;;;;;5014328;28;20601;-81
2023/08/22 10:08:02;;;;;;;4.63;2.70;;;;;;;;;;5014471;28;20826;-81
2023/08/22 10:10:29;;;;;;;3.80;2.90;;;;;;;;;;5014063;28;20239;-81
2023/08/22 10:12:56;;;;;;;3.60;2.80;;;;;;;;;;5014438;28;20669;-81
2023/08/22 10:15:25;;;;;;;4.55;3.13;;;;;;;;;;5013500;28;20259;-81
2023/08/22 10:17:52;;;;;;;2.90;2.70;;;;;;;;;;5014686;28;20218;-81
2023/08/22 10:20:19;;;;;;;2.55;2.35;;;;;;;;;;5013935;28;20219;-81
2023/08/22 10:22:46;;;;;;;2.97;2.13;;;;;;;;;;5014464;28;20238;-80
2023/08/22 10:25:13;;;;;;;2.17;2.03;;;;;;;;;;5012633;28;20697;-81
2023/08/22 10:27:47;;;;;;;3.10;2.67;;;;;;;;;;5014251;28;20222;-80
2023/08/22 10:30:18;;;;;;;3.17;2.83;;;;;;;;;;5006315;28;20223;-80
2023/08/22 10:33:03;;;;;;;3.88;3.03;;;;;;;;;;5014414;28;20215;-80
2023/08/22 10:35:30;;;;;;;4.65;2.88;;;;;;;;;;5007521;28;20230;-80
2023/08/22 10:37:57;;;;;;;6.47;3.70;;;;;;;;;;5013961;28;20215;-80
2023/08/22 10:40:28;;;;;;;4.63;3.47;;;;;;;;;;5013371;28;20293;-81
2023/08/22 10:43:09;;;;;;;3.53;3.10;;;;;;;;;;5011965;28;20207;-80
2023/08/22 10:45:40;;;;;;;5.32;2.97;;;;;;;;;;5005368;28;20623;-81
2023/08/22 10:48:11;;;;;;;5.47;3.20;;;;;;;;;;5012127;28;20217;-80
2023/08/22 10:50:40;;;;;;;4.22;3.60;;;;;;;;;;5012833;28;20230;-80
2023/08/22 10:53:28;;;;;;;4.03;3.50;;;;;;;;;;5011401;28;20206;-80
2023/08/22 10:55:57;;;;;;;3.92;3.58;;;;;;;;;;5007840;28;20238;-81
2023/08/22 10:58:40;;;;;;;4.80;3.55;;;;;;;;;;5005047;28;20262;-80
2023/08/22 11:01:08;;;;;;;5.80;3.78;;;;;;;;;;5004512;28;20230;-80
2023/08/22 11:03:36;;;;;;;3.40;3.10;;;;;;;;;;5007011;28;20682;-81
2023/08/22 11:06:11;;;;;;;3.17;2.80;;;;;;;;;;5002847;28;20304;-81
2023/08/22 11:08:38;;;;;;;4.20;3.40;;;;;;;;;;4998544;28;20211;-80
2023/08/22 11:11:06;;;;;;;3.33;3.03;;;;;;;;;;5009406;28;20280;-80
2023/08/22 11:13:36;;;;;;;3.88;3.55;;;;;;;;;;5013382;28;20673;-80
2023/08/22 11:16:04;;;;;;;4.03;3.30;;;;;;;;;;5012501;28;20257;-80
2023/08/22 11:18:31;;;;;;;3.78;3.40;;;;;;;;;;5013057;28;20656;-81
2023/08/22 11:20:59;;;;;;;3.17;2.88;;;;;;;;;;5012804;28;20723;-81
2023/08/22 11:23:26;;;;;;;4.93;3.17;;;;;;;;;;5013070;28;20210;-81
2023/08/22 11:25:53;;;;;;;4.20;3.53;;;;;;;;;;5012128;28;20245;-80
2023/08/22 11:28:30;;;;;;;4.55;2.83;;;;;;;;;;5012931;28;20207;-81
2023/08/22 11:30:57;;;;;;;3.35;2.92;;;;;;;;;;5012605;28;20716;-80
2023/08/22 11:33:24;;;;;;;4.20;2.83;;;;;;;;;;5012751;28;20558;-81
2023/08/22 11:35:52;;;;;;;3.00;2.75;;;;;;;;;;5012460;28;20234;-81
2023/08/22 11:38:22;;;;;;;4.85;3.38;;;;;;;;;;5008641;28;20203;-81
2023/08/22 11:40:49;;;;;;;3.45;2.60;;;;;;;;;;5011718;28;20222;-81
2023/08/22 11:43:16;;;;;;;3.25;2.95;;;;;;;;;;5011874;28;20206;-82
2023/08/22 11:45:46;;;;;;;3.00;2.70;;;;;;;;;;5011494;28;20230;-81
2023/08/22 11:48:16;;;;;;;3.75;2.80;;;;;;;;;;5011825;28;20209;-81
2023/08/22 11:50:43;;;;;;;2.75;2.55;;;;;;;;;;5011712;28;20712;-82
2023/08/22 11:53:13;;;;;;;3.00;2.70;;;;;;;;;;5011536;28;20673;-81
2023/08/22 11:55:43;;;;;;;4.68;3.10;;;;;;;;;;5011568;28;20238;-82
2023/08/22 11:58:12;;;;;;;3.03;2.80;;;;;;;;;;5011814;28;20238;-81
2023/08/22 12:00:40;;;;;;;2.97;2.30;;;;;;;;;;5011595;28;20317;-82
2023/08/22 12:03:09;;;;;;;3.70;2.25;;;;;;;;;;5011767;28;20217;-81
2023/08/22 12:05:37;;;;;;;2.70;2.50;;;;;;;;;;5011154;28;20317;-81
2023/08/22 12:08:16;;;;;;;5.63;2.85;;;;;;;;;;5011868;28;20209;-81
2023/08/22 12:10:45;;;;;;;4.18;2.78;;;;;;;;;;5009301;28;20238;-82
2023/08/22 12:13:14;;;;;;;4.38;2.42;;;;;;;;;;5011221;28;20219;-81
2023/08/22 12:15:41;;;;;;;3.28;2.40;;;;;;;;;;5008652;28;20357;-81
2023/08/22 12:18:08;;;;;;;6.32;2.50;;;;;;;;;;5011525;28;20688;-81
2023/08/22 12:20:37;;;;;;;3.85;2.50;;;;;;;;;;5011231;28;20238;-81
2023/08/22 12:23:06;;;;;;;4.43;2.28;;;;;;;;;;5011737;28;20203;-81
2023/08/22 12:25:34;;;;;;;2.75;2.38;;;;;;;;;;5010893;28;20238;-81
2023/08/22 12:28:04;;;;;;;2.63;2.42;;;;;;;;;;5009006;28;20217;-81
2023/08/22 12:30:33;;;;;;;4.30;2.70;;;;;;;;;;5011014;28;20260;-81
2023/08/22 12:33:00;;;;;;;2.85;2.40;;;;;;;;;;5011228;28;20298;-81
2023/08/22 12:35:27;;;;;;;2.65;2.45;;;;;;;;;;5010582;28;20235;-82
2023/08/22 12:37:55;;;;;;;3.42;2.63;;;;;;;;;;5011958;28;20210;-83
2023/08/22 12:40:22;;;;;;;2.80;2.42;;;;;;;;;;5003223;28;20219;-83
2023/08/22 12:42:49;;;;;;;3.40;2.50;;;;;;;;;;5005234;28;20234;-83
2023/08/22 12:45:18;;;;;;;2.40;2.30;;;;;;;;;;5009193;28;20245;-83
2023/08/22 12:47:45;;;;;;;2.67;2.20;;;;;;;;;;5009906;28;20214;-84
2023/08/22 12:50:12;;;;;;;4.45;2.63;;;;;;;;;;5010366;28;20211;-83
2023/08/22 12:52:39;;;;;;;2.90;2.70;;;;;;;;;;5010049;28;20265;-83
2023/08/22 12:55:08;;;;;;;2.88;2.58;;;;;;;;;;5010868;28;20237;-83
2023/08/22 12:57:35;;;;;;;3.42;2.30;;;;;;;;;;5011240;28;20708;-83
2023/08/22 13:00:02;;;;;;;2.70;2.50;;;;;;;;;;5011175;28;20225;-84
2023/08/22 13:02:30;;;;;;;4.00;2.25;;;;;;;;;;5011155;28;20642;-84
2023/08/22 13:04:58;;;;;;;2.67;2.47;;;;;;;;;;5011097;28;20231;-84
2023/08/22 13:07:25;;;;;;;2.58;2.38;;;;;;;;;;5010748;28;20227;-83
2023/08/22 13:09:52;;;;;;;5.47;2.30;;;;;;;;;;5011403;28;20214;-84
2023/08/22 13:12:19;;;;;;;3.70;2.40;;;;;;;;;;5010667;28;20305;-84
2023/08/22 13:14:46;;;;;;;4.18;2.53;;;;;;;;;;5011387;28;20230;-84
2023/08/22 13:17:13;;;;;;;2.63;2.42;;;;;;;;;;5010584;28;20237;-83
2023/08/22 13:19:41;;;;;;;3.97;3.47;;;;;;;;;;5011132;28;20202;-83
2023/08/22 13:22:08;;;;;;;3.20;2.63;;;;;;;;;;5010492;28;20728;-83
2023/08/22 13:24:36;;;;;;;3.22;2.50;;;;;;;;;;5010925;28;20242;-84
2023/08/22 13:27:03;;;;;;;2.90;2.65;;;;;;;;;;5010762;28;20238;-83
2023/08/22 13:29:30;;;;;;;4.63;2.50;;;;;;;;;;5010976;28;20570;-83
2023/08/22 13:31:57;;;;;;;7.28;3.30;;;;;;;;;;5010659;28;20731;-84
2023/08/22 13:34:24;;;;;;;3.65;2.63;;;;;;;;;;5003012;28;20230;-84
2023/08/22 13:36:53;;;;;;;2.58;2.38;;;;;;;;;;5010774;28;20718;-83
2023/08/22 13:39:20;;;;;;;3.15;2.55;;;;;;;;;;5010882;28;20218;-84
2023/08/22 13:41:47;;;;;;;3.47;3.08;;;;;;;;;;5010848;28;20235;-83
2023/08/22 13:44:14;;;;;;;4.45;3.30;;;;;;;;;;5010704;28;20266;-84
2023/08/22 13:46:41;;;;;;;4.20;3.00;;;;;;;;;;5010284;28;20731;-83
2023/08/22 13:49:08;;;;;;;2.90;2.55;;;;;;;;;;5010935;28;20211;-83
2023/08/22 13:51:35;;;;;;;3.10;2.80;;;;;;;;;;5010389;28;20238;-83
2023/08/22 13:54:04;;;;;;;3.17;2.92;;;;;;;;;;5009887;28;20207;-84
2023/08/22 13:56:31;;;;;;;2.58;2.30;;;;;;;;;;5009280;28;20237;-82
2023/08/22 13:58:58;;;;;;;2.72;2.53;;;;;;;;;;5005336;28;20227;-81
2023/08/22 14:01:25;;;;;;;4.28;2.83;;;;;;;;;;5010402;28;20226;-82
2023/08/22 14:03:53;;;;;;;4.63;3.00;;;;;;;;;;5014861;28;20215;-82
2023/08/22 14:06:20;;;;;;;5.18;3.80;;;;;;;;;;5013011;28;20238;-82
2023/08/22 14:08:47;;;;;;;4.75;2.60;;;;;;;;;;5014331;28;20238;-79
2023/08/22 14:11:16;;;;;;;5.63;2.60;;;;;;;;;;5005410;28;20712;-83
2023/08/22 14:13:43;;;;;;;2.90;2.45;;;;;;;;;;5014696;28;20574;-82
2023/08/22 14:16:10;;;;;;;3.72;3.05;;;;;;;;;;5014128;28;20581;-81
2023/08/22 14:18:38;;;;;;;3.85;3.28;;;;;;;;;;5015060;28;20203;-81
2023/08/22 14:21:05;;;;;;;3.92;2.65;;;;;;;;;;5014227;28;20227;-82
2023/08/22 14:23:33;;;;;;;2.92;2.60;;;;;;;;;;5014836;28;20199;-82
2023/08/22 14:26:00;;;;;;;2.88;2.67;;;;;;;;;;5013684;28;20235;-82
2023/08/22 14:28:28;;;;;;;4.13;2.42;;;;;;;;;;5006970;28;20257;-81
2023/08/22 14:33:58;;;;;;;5.40;2.78;;;;;;;;;;4998577;28;20195;-83
2023/08/22 14:36:25;;;;;;;3.50;2.53;;;;;;;;;;5001947;28;20231;-83
2023/08/22 14:38:52;;;;;;;3.50;2.67;;;;;;;;;;5013624;28;20616;-83
2023/08/22 14:41:19;;;;;;;3.05;2.60;;;;;;;;;;5013181;28;20700;-83
2023/08/22 14:43:47;;;;;;;4.85;2.80;;;;;;;;;;5013784;28;20669;-83
2023/08/22 14:46:15;;;;;;;5.75;3.28;;;;;;;;;;5003048;28;20733;-80
2023/08/22 14:48:42;;;;;;;5.35;2.97;;;;;;;;;;4999264;28;20560;-82